sensor_id;sensor_type;location;lat;lon;timestamp;P1;durP1;ratioP1;P2;durP2;ratioP2
82930;SDS011;72705;53.346;10.248;2024-02-23T00:02:19;3.80;;;1.88;;
82930;SDS011;72705;53.346;10.248;2024-02-23T00:04:51;2.13;;;1.48;;
82930;SDS011;72705;53.346;10.248;2024-02-23T00:07:16;2.70;;;1.52;;
82930;SDS011;72705;53.346;10.248;2024-02-23T00:09:42;1.75;;;1.38;;
82930;SDS011;72705;53.346;10.248;2024-02-23T00:12:07;2.42;;;1.33;;
82930;SDS011;72705;53.346;10.248;2024-02-23T00:14:36;1.30;;;1.20;;
82930;SDS011;72705;53.346;10.248;2024-02-23T00:22:23;1.92;;;1.30;;
82930;SDS011;72705;53.346;10.248;2024-02-23T00:24:56;2.38;;;1.48;;
82930;SDS011;72705;53.346;10.248;2024-02-23T00:27:30;1.33;;;1.23;;
82930;SDS011;72705;53.346;10.248;2024-02-23T00:29:56;1.67;;;1.38;;
82930;SDS011;72705;53.346;10.248;2024-02-23T00:32:23;3.05;;;1.52;;
82930;SDS011;72705;53.346;10.248;2024-02-23T00:34:51;2.90;;;1.70;;
82930;SDS011;72705;53.346;10.248;2024-02-23T00:37:16;1.98;;;1.65;;
82930;SDS011;72705;53.346;10.248;2024-02-23T00:39:42;2.47;;;1.60;;
82930;SDS011;72705;53.346;10.248;2024-02-23T00:42:07;3.28;;;1.83;;
82930;SDS011;72705;53.346;10.248;2024-02-23T00:44:32;2.92;;;1.70;;
82930;SDS011;72705;53.346;10.248;2024-02-23T00:47:03;2.17;;;1.77;;
82930;SDS011;72705;53.346;10.248;2024-02-23T00:49:30;2.72;;;1.58;;
82930;SDS011;72705;53.346;10.248;2024-02-23T00:51:56;1.95;;;1.75;;
82930;SDS011;72705;53.346;10.248;2024-02-23T00:54:21;4.72;;;2.45;;
82930;SDS011;72705;53.346;10.248;2024-02-23T00:56:55;2.08;;;1.63;;
82930;SDS011;72705;53.346;10.248;2024-02-23T00:59:21;2.78;;;1.75;;
82930;SDS011;72705;53.346;10.248;2024-02-23T01:01:46;3.07;;;1.70;;
82930;SDS011;72705;53.346;10.248;2024-02-23T01:04:12;3.30;;;1.83;;
82930;SDS011;72705;53.346;10.248;2024-02-23T01:06:37;3.90;;;1.52;;
82930;SDS011;72705;53.346;10.248;2024-02-23T01:09:03;2.30;;;1.40;;
82930;SDS011;72705;53.346;10.248;2024-02-23T01:11:29;3.10;;;1.50;;
82930;SDS011;72705;53.346;10.248;2024-02-23T01:13:55;3.22;;;1.75;;
82930;SDS011;72705;53.346;10.248;2024-02-23T01:16:20;3.08;;;1.63;;
82930;SDS011;72705;53.346;10.248;2024-02-23T01:18:46;1.85;;;1.20;;
82930;SDS011;72705;53.346;10.248;2024-02-23T01:21:12;2.13;;;1.50;;
82930;SDS011;72705;53.346;10.248;2024-02-23T01:23:41;1.20;;;1.10;;
82930;SDS011;72705;53.346;10.248;2024-02-23T01:26:07;2.30;;;1.50;;
82930;SDS011;72705;53.346;10.248;2024-02-23T01:28:35;2.47;;;1.42;;
82930;SDS011;72705;53.346;10.248;2024-02-23T01:31:00;4.03;;;1.95;;
82930;SDS011;72705;53.346;10.248;2024-02-23T01:33:33;2.60;;;1.60;;
82930;SDS011;72705;53.346;10.248;2024-02-23T01:36:00;2.95;;;1.48;;
82930;SDS011;72705;53.346;10.248;2024-02-23T01:38:26;1.40;;;1.23;;
82930;SDS011;72705;53.346;10.248;2024-02-23T01:41:01;4.20;;;1.73;;
82930;SDS011;72705;53.346;10.248;2024-02-23T01:43:27;2.45;;;1.52;;
82930;SDS011;72705;53.346;10.248;2024-02-23T01:45:52;1.38;;;1.10;;
82930;SDS011;72705;53.346;10.248;2024-02-23T01:48:20;1.70;;;1.35;;
82930;SDS011;72705;53.346;10.248;2024-02-23T01:50:49;1.33;;;1.20;;
82930;SDS011;72705;53.346;10.248;2024-02-23T01:53:15;2.20;;;1.50;;
82930;SDS011;72705;53.346;10.248;2024-02-23T01:58:10;1.95;;;1.52;;
82930;SDS011;72705;53.346;10.248;2024-02-23T02:00:36;1.42;;;1.33;;
82930;SDS011;72705;53.346;10.248;2024-02-23T02:03:02;2.28;;;1.40;;
82930;SDS011;72705;53.346;10.248;2024-02-23T02:05:40;1.40;;;1.30;;
82930;SDS011;72705;53.346;10.248;2024-02-23T02:08:05;1.50;;;1.30;;
82930;SDS011;72705;53.346;10.248;2024-02-23T02:10:31;1.65;;;1.17;;
82930;SDS011;72705;53.346;10.248;2024-02-23T02:13:01;1.30;;;1.20;;
82930;SDS011;72705;53.346;10.248;2024-02-23T02:15:32;1.33;;;1.23;;
82930;SDS011;72705;53.346;10.248;2024-02-23T02:17:57;1.40;;;1.30;;
82930;SDS011;72705;53.346;10.248;2024-02-23T02:20:29;1.30;;;1.20;;
82930;SDS011;72705;53.346;10.248;2024-02-23T02:22:58;1.40;;;1.30;;
82930;SDS011;72705;53.346;10.248;2024-02-23T02:25:24;1.33;;;1.23;;
82930;SDS011;72705;53.346;10.248;2024-02-23T02:27:51;1.50;;;1.40;;
82930;SDS011;72705;53.346;10.248;2024-02-23T02:30:17;1.23;;;1.13;;
82930;SDS011;72705;53.346;10.248;2024-02-23T02:32:49;1.00;;;1.00;;
82930;SDS011;72705;53.346;10.248;2024-02-23T02:35:26;1.10;;;1.10;;
82930;SDS011;72705;53.346;10.248;2024-02-23T02:37:52;1.15;;;1.15;;
82930;SDS011;72705;53.346;10.248;2024-02-23T02:40:19;0.90;;;0.90;;
82930;SDS011;72705;53.346;10.248;2024-02-23T02:42:45;1.35;;;1.25;;
82930;SDS011;72705;53.346;10.248;2024-02-23T02:45:13;1.10;;;0.83;;
82930;SDS011;72705;53.346;10.248;2024-02-23T02:50:04;0.80;;;0.80;;
82930;SDS011;72705;53.346;10.248;2024-02-23T02:52:32;1.35;;;0.90;;
82930;SDS011;72705;53.346;10.248;2024-02-23T02:54:59;1.08;;;1.08;;
82930;SDS011;72705;53.346;10.248;2024-02-23T02:57:24;3.35;;;1.05;;
82930;SDS011;72705;53.346;10.248;2024-02-23T02:59:49;0.90;;;0.90;;
82930;SDS011;72705;53.346;10.248;2024-02-23T03:02:15;1.17;;;0.98;;
82930;SDS011;72705;53.346;10.248;2024-02-23T03:04:52;0.85;;;0.85;;
82930;SDS011;72705;53.346;10.248;2024-02-23T03:07:19;1.13;;;1.02;;
82930;SDS011;72705;53.346;10.248;2024-02-23T03:09:44;2.23;;;1.03;;
82930;SDS011;72705;53.346;10.248;2024-02-23T03:12:10;4.20;;;1.53;;
82930;SDS011;72705;53.346;10.248;2024-02-23T03:14:35;1.30;;;1.20;;
82930;SDS011;72705;53.346;10.248;2024-02-23T03:17:05;0.90;;;0.82;;
82930;SDS011;72705;53.346;10.248;2024-02-23T03:19:37;1.60;;;1.40;;
82930;SDS011;72705;53.346;10.248;2024-02-23T03:22:03;1.55;;;1.13;;
82930;SDS011;72705;53.346;10.248;2024-02-23T03:24:28;0.85;;;0.70;;
82930;SDS011;72705;53.346;10.248;2024-02-23T03:26:54;0.80;;;0.80;;
82930;SDS011;72705;53.346;10.248;2024-02-23T03:29:20;1.00;;;1.00;;
82930;SDS011;72705;53.346;10.248;2024-02-23T03:31:51;0.68;;;0.68;;
82930;SDS011;72705;53.346;10.248;2024-02-23T03:34:16;1.17;;;1.08;;
82930;SDS011;72705;53.346;10.248;2024-02-23T03:36:42;0.77;;;0.77;;
82930;SDS011;72705;53.346;10.248;2024-02-23T03:39:07;0.90;;;0.88;;
82930;SDS011;72705;53.346;10.248;2024-02-23T03:41:33;1.00;;;1.00;;
82930;SDS011;72705;53.346;10.248;2024-02-23T03:43:58;1.33;;;0.95;;
82930;SDS011;72705;53.346;10.248;2024-02-23T03:46:23;1.42;;;1.08;;
82930;SDS011;72705;53.346;10.248;2024-02-23T03:48:50;4.07;;;1.45;;
82930;SDS011;72705;53.346;10.248;2024-02-23T03:51:23;1.13;;;1.02;;
82930;SDS011;72705;53.346;10.248;2024-02-23T03:53:49;2.13;;;1.08;;
82930;SDS011;72705;53.346;10.248;2024-02-23T03:56:15;1.02;;;0.93;;
82930;SDS011;72705;53.346;10.248;2024-02-23T03:58:41;1.20;;;1.15;;
82930;SDS011;72705;53.346;10.248;2024-02-23T04:01:06;1.60;;;1.50;;
82930;SDS011;72705;53.346;10.248;2024-02-23T04:03:31;1.35;;;1.13;;
82930;SDS011;72705;53.346;10.248;2024-02-23T04:05:57;1.00;;;1.00;;
82930;SDS011;72705;53.346;10.248;2024-02-23T04:08:27;1.17;;;1.10;;
82930;SDS011;72705;53.346;10.248;2024-02-23T04:10:52;0.93;;;0.90;;
82930;SDS011;72705;53.346;10.248;2024-02-23T04:13:20;2.07;;;1.30;;
82930;SDS011;72705;53.346;10.248;2024-02-23T04:15:45;1.00;;;0.98;;
82930;SDS011;72705;53.346;10.248;2024-02-23T04:18:11;1.45;;;1.13;;
82930;SDS011;72705;53.346;10.248;2024-02-23T04:20:36;1.92;;;1.40;;
82930;SDS011;72705;53.346;10.248;2024-02-23T04:23:02;0.87;;;0.87;;
82930;SDS011;72705;53.346;10.248;2024-02-23T04:25:30;1.47;;;1.37;;
82930;SDS011;72705;53.346;10.248;2024-02-23T04:27:55;1.38;;;1.27;;
82930;SDS011;72705;53.346;10.248;2024-02-23T04:30:21;1.43;;;0.90;;
82930;SDS011;72705;53.346;10.248;2024-02-23T04:32:46;3.10;;;1.40;;
82930;SDS011;72705;53.346;10.248;2024-02-23T04:35:11;1.37;;;1.23;;
82930;SDS011;72705;53.346;10.248;2024-02-23T04:37:39;2.28;;;1.38;;
82930;SDS011;72705;53.346;10.248;2024-02-23T04:42:35;3.05;;;1.60;;
82930;SDS011;72705;53.346;10.248;2024-02-23T04:45:06;2.30;;;1.58;;
82930;SDS011;72705;53.346;10.248;2024-02-23T04:47:32;3.55;;;1.63;;
82930;SDS011;72705;53.346;10.248;2024-02-23T04:49:57;3.37;;;1.70;;
82930;SDS011;72705;53.346;10.248;2024-02-23T04:52:23;3.30;;;1.88;;
82930;SDS011;72705;53.346;10.248;2024-02-23T04:54:48;1.88;;;1.60;;
82930;SDS011;72705;53.346;10.248;2024-02-23T04:57:13;2.53;;;1.60;;
82930;SDS011;72705;53.346;10.248;2024-02-23T04:59:39;1.95;;;1.73;;
82930;SDS011;72705;53.346;10.248;2024-02-23T05:02:04;3.20;;;1.97;;
82930;SDS011;72705;53.346;10.248;2024-02-23T05:04:30;2.90;;;1.80;;
82930;SDS011;72705;53.346;10.248;2024-02-23T05:06:55;2.83;;;1.90;;
82930;SDS011;72705;53.346;10.248;2024-02-23T05:09:23;3.35;;;2.25;;
82930;SDS011;72705;53.346;10.248;2024-02-23T05:11:48;5.35;;;2.47;;
82930;SDS011;72705;53.346;10.248;2024-02-23T05:14:14;4.53;;;2.43;;
82930;SDS011;72705;53.346;10.248;2024-02-23T05:16:40;4.55;;;1.95;;
82930;SDS011;72705;53.346;10.248;2024-02-23T05:19:06;2.03;;;1.60;;
82930;SDS011;72705;53.346;10.248;2024-02-23T05:21:32;4.35;;;2.22;;
82930;SDS011;72705;53.346;10.248;2024-02-23T05:23:58;2.83;;;1.77;;
82930;SDS011;72705;53.346;10.248;2024-02-23T05:26:23;4.00;;;2.22;;
82930;SDS011;72705;53.346;10.248;2024-02-23T05:28:49;3.78;;;1.80;;
82930;SDS011;72705;53.346;10.248;2024-02-23T05:31:14;3.53;;;2.10;;
82930;SDS011;72705;53.346;10.248;2024-02-23T05:33:42;7.40;;;2.90;;
82930;SDS011;72705;53.346;10.248;2024-02-23T05:38:40;3.05;;;2.00;;
82930;SDS011;72705;53.346;10.248;2024-02-23T05:41:05;4.28;;;2.67;;
82930;SDS011;72705;53.346;10.248;2024-02-23T05:43:31;2.60;;;1.87;;
82930;SDS011;72705;53.346;10.248;2024-02-23T05:45:56;5.97;;;2.10;;
82930;SDS011;72705;53.346;10.248;2024-02-23T05:48:25;3.15;;;1.88;;
82930;SDS011;72705;53.346;10.248;2024-02-23T05:50:51;4.05;;;2.22;;
82930;SDS011;72705;53.346;10.248;2024-02-23T05:55:48;5.25;;;2.13;;
82930;SDS011;72705;53.346;10.248;2024-02-23T05:58:14;2.75;;;2.13;;
82930;SDS011;72705;53.346;10.248;2024-02-23T06:00:47;8.43;;;2.47;;
82930;SDS011;72705;53.346;10.248;2024-02-23T06:03:13;3.10;;;2.35;;
82930;SDS011;72705;53.346;10.248;2024-02-23T06:05:39;2.80;;;1.83;;
82930;SDS011;72705;53.346;10.248;2024-02-23T06:08:05;4.07;;;2.03;;
82930;SDS011;72705;53.346;10.248;2024-02-23T06:10:40;2.30;;;2.10;;
82930;SDS011;72705;53.346;10.248;2024-02-23T06:13:07;4.68;;;2.55;;
82930;SDS011;72705;53.346;10.248;2024-02-23T06:15:41;4.90;;;3.30;;
82930;SDS011;72705;53.346;10.248;2024-02-23T06:18:07;4.72;;;3.03;;
82930;SDS011;72705;53.346;10.248;2024-02-23T06:20:33;3.17;;;2.37;;
82930;SDS011;72705;53.346;10.248;2024-02-23T06:22:58;4.05;;;3.03;;
82930;SDS011;72705;53.346;10.248;2024-02-23T06:25:24;6.63;;;3.22;;
82930;SDS011;72705;53.346;10.248;2024-02-23T06:27:53;4.60;;;3.00;;
82930;SDS011;72705;53.346;10.248;2024-02-23T06:30:22;3.75;;;2.72;;
82930;SDS011;72705;53.346;10.248;2024-02-23T06:32:47;3.13;;;2.67;;
82930;SDS011;72705;53.346;10.248;2024-02-23T06:35:12;4.50;;;2.45;;
82930;SDS011;72705;53.346;10.248;2024-02-23T06:37:52;3.45;;;2.80;;
82930;SDS011;72705;53.346;10.248;2024-02-23T06:40:17;3.65;;;3.05;;
82930;SDS011;72705;53.346;10.248;2024-02-23T06:42:51;3.92;;;2.85;;
82930;SDS011;72705;53.346;10.248;2024-02-23T06:45:16;4.85;;;3.45;;
82930;SDS011;72705;53.346;10.248;2024-02-23T06:47:44;5.27;;;3.03;;
82930;SDS011;72705;53.346;10.248;2024-02-23T06:50:09;5.50;;;2.70;;
82930;SDS011;72705;53.346;10.248;2024-02-23T06:52:35;5.47;;;2.45;;
82930;SDS011;72705;53.346;10.248;2024-02-23T06:55:00;5.50;;;3.00;;
82930;SDS011;72705;53.346;10.248;2024-02-23T06:57:25;5.83;;;2.93;;
82930;SDS011;72705;53.346;10.248;2024-02-23T07:02:32;7.80;;;2.92;;
82930;SDS011;72705;53.346;10.248;2024-02-23T07:07:39;5.10;;;2.40;;
82930;SDS011;72705;53.346;10.248;2024-02-23T07:10:07;3.92;;;2.45;;
82930;SDS011;72705;53.346;10.248;2024-02-23T07:12:33;3.30;;;2.55;;
82930;SDS011;72705;53.346;10.248;2024-02-23T07:14:58;6.63;;;2.17;;
82930;SDS011;72705;53.346;10.248;2024-02-23T07:17:24;5.68;;;2.90;;
82930;SDS011;72705;53.346;10.248;2024-02-23T07:19:49;7.83;;;2.70;;
82930;SDS011;72705;53.346;10.248;2024-02-23T07:22:16;6.78;;;2.35;;
82930;SDS011;72705;53.346;10.248;2024-02-23T07:24:43;3.97;;;2.05;;
82930;SDS011;72705;53.346;10.248;2024-02-23T07:29:59;3.78;;;2.00;;
82930;SDS011;72705;53.346;10.248;2024-02-23T07:32:31;2.87;;;2.17;;
82930;SDS011;72705;53.346;10.248;2024-02-23T07:34:56;4.72;;;2.05;;
82930;SDS011;72705;53.346;10.248;2024-02-23T07:39:55;3.30;;;2.60;;
82930;SDS011;72705;53.346;10.248;2024-02-23T07:42:21;2.63;;;2.03;;
82930;SDS011;72705;53.346;10.248;2024-02-23T07:44:55;3.55;;;2.05;;
82930;SDS011;72705;53.346;10.248;2024-02-23T07:47:30;4.22;;;2.10;;
82930;SDS011;72705;53.346;10.248;2024-02-23T07:49:56;2.70;;;2.42;;
82930;SDS011;72705;53.346;10.248;2024-02-23T07:52:34;5.72;;;2.47;;
82930;SDS011;72705;53.346;10.248;2024-02-23T07:55:04;3.50;;;2.25;;
82930;SDS011;72705;53.346;10.248;2024-02-23T08:00:19;6.45;;;1.95;;
82930;SDS011;72705;53.346;10.248;2024-02-23T08:02:45;2.42;;;2.22;;
82930;SDS011;72705;53.346;10.248;2024-02-23T08:05:21;2.95;;;2.33;;
82930;SDS011;72705;53.346;10.248;2024-02-23T08:07:47;3.95;;;2.00;;
82930;SDS011;72705;53.346;10.248;2024-02-23T08:10:16;6.83;;;2.40;;
82930;SDS011;72705;53.346;10.248;2024-02-23T08:12:47;3.72;;;2.13;;
82930;SDS011;72705;53.346;10.248;2024-02-23T08:15:12;5.72;;;2.30;;
82930;SDS011;72705;53.346;10.248;2024-02-23T08:20:26;4.82;;;2.03;;
82930;SDS011;72705;53.346;10.248;2024-02-23T08:22:58;5.30;;;2.47;;
82930;SDS011;72705;53.346;10.248;2024-02-23T08:25:25;3.05;;;2.20;;
82930;SDS011;72705;53.346;10.248;2024-02-23T08:27:53;5.97;;;2.35;;
82930;SDS011;72705;53.346;10.248;2024-02-23T08:30:18;2.42;;;1.75;;
82930;SDS011;72705;53.346;10.248;2024-02-23T08:32:48;3.35;;;2.00;;
82930;SDS011;72705;53.346;10.248;2024-02-23T08:35:26;4.80;;;2.30;;
82930;SDS011;72705;53.346;10.248;2024-02-23T08:37:51;3.40;;;2.33;;
82930;SDS011;72705;53.346;10.248;2024-02-23T08:40:22;3.03;;;2.20;;
82930;SDS011;72705;53.346;10.248;2024-02-23T08:42:50;4.15;;;1.80;;
82930;SDS011;72705;53.346;10.248;2024-02-23T08:45:26;7.30;;;2.33;;
82930;SDS011;72705;53.346;10.248;2024-02-23T08:47:52;4.75;;;2.25;;
82930;SDS011;72705;53.346;10.248;2024-02-23T08:50:17;4.97;;;2.28;;
82930;SDS011;72705;53.346;10.248;2024-02-23T08:52:42;5.37;;;2.17;;
82930;SDS011;72705;53.346;10.248;2024-02-23T08:55:17;2.80;;;1.90;;
82930;SDS011;72705;53.346;10.248;2024-02-23T09:00:25;6.17;;;2.10;;
82930;SDS011;72705;53.346;10.248;2024-02-23T09:02:50;4.25;;;2.08;;
82930;SDS011;72705;53.346;10.248;2024-02-23T09:05:23;5.53;;;1.97;;
82930;SDS011;72705;53.346;10.248;2024-02-23T09:07:49;4.40;;;2.08;;
82930;SDS011;72705;53.346;10.248;2024-02-23T09:10:16;3.25;;;2.10;;
82930;SDS011;72705;53.346;10.248;2024-02-23T09:12:47;6.20;;;2.10;;
82930;SDS011;72705;53.346;10.248;2024-02-23T09:15:12;4.40;;;2.45;;
82930;SDS011;72705;53.346;10.248;2024-02-23T09:17:41;2.90;;;2.00;;
82930;SDS011;72705;53.346;10.248;2024-02-23T09:22:42;4.43;;;2.10;;
82930;SDS011;72705;53.346;10.248;2024-02-23T09:25:07;3.00;;;1.80;;
82930;SDS011;72705;53.346;10.248;2024-02-23T09:27:33;2.90;;;1.90;;
82930;SDS011;72705;53.346;10.248;2024-02-23T09:30:01;4.72;;;2.20;;
82930;SDS011;72705;53.346;10.248;2024-02-23T09:32:41;5.60;;;2.22;;
82930;SDS011;72705;53.346;10.248;2024-02-23T09:35:07;6.50;;;2.70;;
82930;SDS011;72705;53.346;10.248;2024-02-23T09:37:32;3.78;;;2.30;;
82930;SDS011;72705;53.346;10.248;2024-02-23T09:40:02;4.25;;;1.98;;
82930;SDS011;72705;53.346;10.248;2024-02-23T09:45:09;2.33;;;2.08;;
82930;SDS011;72705;53.346;10.248;2024-02-23T09:47:40;4.75;;;2.17;;
82930;SDS011;72705;53.346;10.248;2024-02-23T09:50:05;5.00;;;1.92;;
82930;SDS011;72705;53.346;10.248;2024-02-23T09:55:21;5.43;;;2.00;;
82930;SDS011;72705;53.346;10.248;2024-02-23T09:57:47;5.63;;;1.67;;
82930;SDS011;72705;53.346;10.248;2024-02-23T10:00:15;4.18;;;1.77;;
82930;SDS011;72705;53.346;10.248;2024-02-23T10:02:42;7.20;;;2.22;;
82930;SDS011;72705;53.346;10.248;2024-02-23T10:05:12;6.03;;;2.35;;
82930;SDS011;72705;53.346;10.248;2024-02-23T10:07:39;6.90;;;2.17;;
82930;SDS011;72705;53.346;10.248;2024-02-23T10:10:07;5.30;;;2.07;;
82930;SDS011;72705;53.346;10.248;2024-02-23T10:12:34;3.70;;;2.03;;
82930;SDS011;72705;53.346;10.248;2024-02-23T10:15:02;2.83;;;1.90;;
82930;SDS011;72705;53.346;10.248;2024-02-23T10:17:41;4.20;;;2.30;;
82930;SDS011;72705;53.346;10.248;2024-02-23T10:20:18;4.30;;;2.20;;
82930;SDS011;72705;53.346;10.248;2024-02-23T10:22:44;3.85;;;1.98;;
82930;SDS011;72705;53.346;10.248;2024-02-23T10:25:23;5.72;;;2.28;;
82930;SDS011;72705;53.346;10.248;2024-02-23T10:27:48;6.22;;;2.30;;
82930;SDS011;72705;53.346;10.248;2024-02-23T10:30:14;2.58;;;1.70;;
82930;SDS011;72705;53.346;10.248;2024-02-23T10:32:42;5.07;;;2.13;;
82930;SDS011;72705;53.346;10.248;2024-02-23T10:35:09;4.38;;;2.28;;
82930;SDS011;72705;53.346;10.248;2024-02-23T10:37:41;3.80;;;1.95;;
82930;SDS011;72705;53.346;10.248;2024-02-23T10:40:15;6.28;;;1.88;;
82930;SDS011;72705;53.346;10.248;2024-02-23T10:45:36;3.88;;;1.80;;
82930;SDS011;72705;53.346;10.248;2024-02-23T10:48:18;6.72;;;1.77;;
82930;SDS011;72705;53.346;10.248;2024-02-23T10:50:44;4.38;;;1.77;;
82930;SDS011;72705;53.346;10.248;2024-02-23T10:53:09;6.25;;;2.35;;
82930;SDS011;72705;53.346;10.248;2024-02-23T10:55:36;7.53;;;1.90;;
82930;SDS011;72705;53.346;10.248;2024-02-23T10:58:03;3.80;;;2.03;;
82930;SDS011;72705;53.346;10.248;2024-02-23T11:00:32;4.18;;;2.28;;
82930;SDS011;72705;53.346;10.248;2024-02-23T11:02:58;3.05;;;1.67;;
82930;SDS011;72705;53.346;10.248;2024-02-23T11:05:24;4.78;;;1.85;;
82930;SDS011;72705;53.346;10.248;2024-02-23T11:07:50;3.75;;;1.73;;
82930;SDS011;72705;53.346;10.248;2024-02-23T11:10:17;2.17;;;1.45;;
82930;SDS011;72705;53.346;10.248;2024-02-23T11:12:42;5.65;;;1.70;;
82930;SDS011;72705;53.346;10.248;2024-02-23T11:15:30;3.90;;;1.60;;
82930;SDS011;72705;53.346;10.248;2024-02-23T11:17:58;6.15;;;1.67;;
82930;SDS011;72705;53.346;10.248;2024-02-23T11:20:37;2.97;;;1.73;;
82930;SDS011;72705;53.346;10.248;2024-02-23T11:23:14;3.85;;;1.73;;
82930;SDS011;72705;53.346;10.248;2024-02-23T11:26:24;2.22;;;1.52;;
82930;SDS011;72705;53.346;10.248;2024-02-23T11:28:32;4.57;;;1.85;;
82930;SDS011;72705;53.346;10.248;2024-02-23T11:30:57;4.70;;;1.60;;
82930;SDS011;72705;53.346;10.248;2024-02-23T11:33:27;3.95;;;1.75;;
82930;SDS011;72705;53.346;10.248;2024-02-23T11:36:06;2.88;;;1.65;;
82930;SDS011;72705;53.346;10.248;2024-02-23T11:38:32;3.45;;;1.65;;
82930;SDS011;72705;53.346;10.248;2024-02-23T11:41:15;3.42;;;1.55;;
82930;SDS011;72705;53.346;10.248;2024-02-23T11:46:32;2.65;;;1.33;;
82930;SDS011;72705;53.346;10.248;2024-02-23T11:48:57;3.45;;;1.77;;
82930;SDS011;72705;53.346;10.248;2024-02-23T11:51:23;2.40;;;2.17;;
82930;SDS011;72705;53.346;10.248;2024-02-23T11:56:18;4.00;;;1.25;;
82930;SDS011;72705;53.346;10.248;2024-02-23T11:58:44;2.97;;;1.35;;
82930;SDS011;72705;53.346;10.248;2024-02-23T12:01:09;3.05;;;1.50;;
82930;SDS011;72705;53.346;10.248;2024-02-23T12:03:34;4.85;;;1.45;;
82930;SDS011;72705;53.346;10.248;2024-02-23T12:06:07;3.15;;;1.52;;
82930;SDS011;72705;53.346;10.248;2024-02-23T12:08:35;2.65;;;1.55;;
82930;SDS011;72705;53.346;10.248;2024-02-23T12:11:05;3.83;;;1.42;;
82930;SDS011;72705;53.346;10.248;2024-02-23T12:13:32;3.00;;;1.73;;
82930;SDS011;72705;53.346;10.248;2024-02-23T12:15:58;3.33;;;1.27;;
82930;SDS011;72705;53.346;10.248;2024-02-23T12:18:24;4.93;;;1.33;;
82930;SDS011;72705;53.346;10.248;2024-02-23T12:20:59;3.40;;;1.60;;
82930;SDS011;72705;53.346;10.248;2024-02-23T12:23:44;5.82;;;1.38;;
82930;SDS011;72705;53.346;10.248;2024-02-23T12:26:12;4.22;;;1.63;;
82930;SDS011;72705;53.346;10.248;2024-02-23T12:28:38;2.92;;;1.50;;
82930;SDS011;72705;53.346;10.248;2024-02-23T12:31:05;2.65;;;1.75;;
82930;SDS011;72705;53.346;10.248;2024-02-23T12:33:31;3.13;;;1.83;;
82930;SDS011;72705;53.346;10.248;2024-02-23T12:35:59;3.58;;;1.42;;
82930;SDS011;72705;53.346;10.248;2024-02-23T12:38:25;2.08;;;1.55;;
82930;SDS011;72705;53.346;10.248;2024-02-23T12:40:51;2.25;;;1.25;;
82930;SDS011;72705;53.346;10.248;2024-02-23T12:43:17;1.75;;;1.17;;
82930;SDS011;72705;53.346;10.248;2024-02-23T12:45:43;2.08;;;1.52;;
82930;SDS011;72705;53.346;10.248;2024-02-23T12:48:14;1.52;;;1.40;;
82930;SDS011;72705;53.346;10.248;2024-02-23T12:50:40;3.65;;;1.50;;
82930;SDS011;72705;53.346;10.248;2024-02-23T12:53:05;2.10;;;1.60;;
82930;SDS011;72705;53.346;10.248;2024-02-23T12:55:31;3.40;;;1.60;;
82930;SDS011;72705;53.346;10.248;2024-02-23T12:57:56;2.30;;;1.50;;
82930;SDS011;72705;53.346;10.248;2024-02-23T13:00:27;2.93;;;1.10;;
82930;SDS011;72705;53.346;10.248;2024-02-23T13:02:52;2.75;;;1.40;;
82930;SDS011;72705;53.346;10.248;2024-02-23T13:05:20;1.10;;;1.00;;
82930;SDS011;72705;53.346;10.248;2024-02-23T13:07:45;2.35;;;1.38;;
82930;SDS011;72705;53.346;10.248;2024-02-23T13:10:12;3.13;;;1.40;;
82930;SDS011;72705;53.346;10.248;2024-02-23T13:12:38;4.55;;;1.65;;
82930;SDS011;72705;53.346;10.248;2024-02-23T13:15:09;1.67;;;1.00;;
82930;SDS011;72705;53.346;10.248;2024-02-23T13:17:35;3.50;;;1.42;;
82930;SDS011;72705;53.346;10.248;2024-02-23T13:22:32;3.20;;;1.48;;
82930;SDS011;72705;53.346;10.248;2024-02-23T13:24:57;2.83;;;1.40;;
82930;SDS011;72705;53.346;10.248;2024-02-23T13:27:23;1.47;;;1.10;;
82930;SDS011;72705;53.346;10.248;2024-02-23T13:29:48;1.83;;;1.10;;
82930;SDS011;72705;53.346;10.248;2024-02-23T13:32:17;3.63;;;1.70;;
82930;SDS011;72705;53.346;10.248;2024-02-23T13:37:07;1.67;;;1.10;;
82930;SDS011;72705;53.346;10.248;2024-02-23T13:39:32;2.63;;;1.90;;
82930;SDS011;72705;53.346;10.248;2024-02-23T13:44:30;2.30;;;1.27;;
82930;SDS011;72705;53.346;10.248;2024-02-23T13:46:56;1.98;;;1.17;;
82930;SDS011;72705;53.346;10.248;2024-02-23T13:49:21;4.35;;;1.25;;
82930;SDS011;72705;53.346;10.248;2024-02-23T13:51:48;1.25;;;0.93;;
82930;SDS011;72705;53.346;10.248;2024-02-23T13:54:22;3.30;;;1.33;;
82930;SDS011;72705;53.346;10.248;2024-02-23T13:56:48;2.33;;;1.08;;
82930;SDS011;72705;53.346;10.248;2024-02-23T13:59:14;3.20;;;1.40;;
82930;SDS011;72705;53.346;10.248;2024-02-23T14:01:39;1.43;;;1.07;;
82930;SDS011;72705;53.346;10.248;2024-02-23T14:04:05;5.82;;;1.55;;
82930;SDS011;72705;53.346;10.248;2024-02-23T14:06:32;4.70;;;1.58;;
82930;SDS011;72705;53.346;10.248;2024-02-23T14:08:57;1.38;;;1.15;;
82930;SDS011;72705;53.346;10.248;2024-02-23T14:11:24;2.00;;;1.27;;
82930;SDS011;72705;53.346;10.248;2024-02-23T14:13:50;1.65;;;1.42;;
82930;SDS011;72705;53.346;10.248;2024-02-23T14:16:16;2.60;;;1.42;;
82930;SDS011;72705;53.346;10.248;2024-02-23T14:18:43;1.20;;;1.10;;
82930;SDS011;72705;53.346;10.248;2024-02-23T14:21:09;3.25;;;1.40;;
82930;SDS011;72705;53.346;10.248;2024-02-23T14:23:35;2.08;;;1.38;;
82930;SDS011;72705;53.346;10.248;2024-02-23T14:26:01;2.63;;;1.77;;
82930;SDS011;72705;53.346;10.248;2024-02-23T14:28:27;1.77;;;1.17;;
82930;SDS011;72705;53.346;10.248;2024-02-23T14:30:52;1.77;;;1.33;;
82930;SDS011;72705;53.346;10.248;2024-02-23T14:33:18;2.47;;;1.33;;
82930;SDS011;72705;53.346;10.248;2024-02-23T14:35:45;2.85;;;1.50;;
82930;SDS011;72705;53.346;10.248;2024-02-23T14:38:10;3.05;;;1.48;;
82930;SDS011;72705;53.346;10.248;2024-02-23T14:40:42;3.55;;;1.48;;
82930;SDS011;72705;53.346;10.248;2024-02-23T14:43:08;2.78;;;1.70;;
82930;SDS011;72705;53.346;10.248;2024-02-23T14:45:48;2.85;;;1.55;;
82930;SDS011;72705;53.346;10.248;2024-02-23T14:48:13;1.52;;;1.42;;
82930;SDS011;72705;53.346;10.248;2024-02-23T14:50:42;2.40;;;1.80;;
82930;SDS011;72705;53.346;10.248;2024-02-23T14:55:33;2.50;;;1.67;;
82930;SDS011;72705;53.346;10.248;2024-02-23T14:57:59;2.08;;;1.45;;
82930;SDS011;72705;53.346;10.248;2024-02-23T15:00:25;3.70;;;1.55;;
82930;SDS011;72705;53.346;10.248;2024-02-23T15:02:51;4.80;;;1.50;;
82930;SDS011;72705;53.346;10.248;2024-02-23T15:05:16;1.90;;;1.42;;
82930;SDS011;72705;53.346;10.248;2024-02-23T15:07:42;4.03;;;1.60;;
82930;SDS011;72705;53.346;10.248;2024-02-23T15:10:08;3.17;;;1.45;;
82930;SDS011;72705;53.346;10.248;2024-02-23T15:12:36;3.38;;;1.63;;
82930;SDS011;72705;53.346;10.248;2024-02-23T15:15:02;3.88;;;1.45;;
82930;SDS011;72705;53.346;10.248;2024-02-23T15:17:29;3.90;;;1.38;;
82930;SDS011;72705;53.346;10.248;2024-02-23T15:19:56;3.95;;;1.67;;
82930;SDS011;72705;53.346;10.248;2024-02-23T15:22:33;3.40;;;1.38;;
82930;SDS011;72705;53.346;10.248;2024-02-23T15:25:03;3.83;;;1.13;;
82930;SDS011;72705;53.346;10.248;2024-02-23T15:27:31;1.73;;;1.23;;
82930;SDS011;72705;53.346;10.248;2024-02-23T15:29:56;2.43;;;1.60;;
82930;SDS011;72705;53.346;10.248;2024-02-23T15:32:21;2.28;;;1.52;;
82930;SDS011;72705;53.346;10.248;2024-02-23T15:34:47;2.63;;;1.27;;
82930;SDS011;72705;53.346;10.248;2024-02-23T15:37:12;2.83;;;1.63;;
82930;SDS011;72705;53.346;10.248;2024-02-23T15:39:37;2.13;;;1.33;;